createdAt,value
2018-03-26T00:02:12.665Z,28.10
2018-03-26T00:04:47.038Z,28.23
2018-03-26T00:07:21.344Z,28.10
2018-03-26T00:09:56.477Z,28.93
2018-03-26T00:12:30.861Z,29.57
2018-03-26T00:15:05.276Z,29.13
2018-03-26T00:17:39.674Z,31.10
2018-03-26T00:20:14.658Z,30.47
2018-03-26T00:22:48.951Z,29.67
2018-03-26T00:25:23.232Z,29.40
2018-03-26T00:27:57.597Z,29.50
2018-03-26T00:30:32.947Z,31.00
2018-03-26T00:33:07.296Z,29.60
2018-03-26T00:35:41.469Z,31.53
2018-03-26T00:38:15.866Z,30.93
2018-03-26T00:40:50.177Z,30.60
2018-03-26T00:43:24.672Z,31.90
2018-03-26T00:45:58.990Z,32.47
2018-03-26T00:48:33.257Z,27.97
2018-03-26T00:51:07.749Z,29.10
2018-03-26T00:53:44.131Z,28.60
2018-03-26T00:56:18.390Z,29.20
2018-03-26T00:58:52.949Z,30.13
2018-03-26T01:01:28.099Z,30.47
2018-03-26T01:04:02.463Z,30.33
2018-03-26T01:06:36.646Z,31.07
2018-03-26T01:09:10.964Z,33.60
2018-03-26T01:11:45.959Z,32.43
2018-03-26T01:14:20.245Z,33.87
2018-03-26T01:16:54.459Z,33.43
2018-03-26T01:19:28.777Z,32.60
2018-03-26T01:22:03.331Z,35.57
2018-03-26T01:24:37.597Z,33.00
2018-03-26T01:27:11.882Z,32.80
2018-03-26T01:29:46.837Z,35.13
2018-03-26T01:32:21.209Z,34.17
2018-03-26T01:34:55.508Z,35.70
2018-03-26T01:37:29.621Z,34.33
2018-03-26T01:40:03.805Z,36.33
2018-03-26T01:42:38.194Z,35.10
2018-03-26T01:45:13.339Z,37.47
2018-03-26T01:47:48.495Z,35.90
2018-03-26T01:50:22.800Z,35.07
2018-03-26T01:52:57.325Z,35.23
2018-03-26T01:55:31.698Z,36.90
2018-03-26T01:58:06.055Z,37.83
2018-03-26T02:00:40.436Z,35.87
2018-03-26T02:03:15.562Z,38.60
2018-03-26T02:05:49.907Z,38.93
2018-03-26T02:08:24.023Z,36.90
2018-03-26T02:10:58.408Z,36.17
2018-03-26T02:13:32.775Z,38.33
2018-03-26T02:16:07.125Z,38.63
2018-03-26T02:18:41.220Z,38.20
2018-03-26T02:21:15.558Z,38.80
2018-03-26T02:23:50.048Z,38.73
2018-03-26T02:26:24.202Z,37.93
2018-03-26T02:28:59.091Z,35.47
2018-03-26T02:31:33.333Z,34.97
2018-03-26T02:34:08.350Z,34.87
2018-03-26T02:36:42.662Z,35.27
2018-03-26T02:39:17.804Z,36.30
2018-03-26T02:41:52.120Z,34.63
2018-03-26T02:44:26.498Z,33.53
2018-03-26T02:47:00.662Z,34.73
2018-03-26T02:49:35.168Z,34.70
2018-03-26T02:52:09.469Z,33.37
2018-03-26T02:54:43.652Z,32.43
2018-03-26T02:57:18.745Z,32.93
2018-03-26T02:59:53.127Z,33.30
2018-03-26T03:02:28.209Z,30.27
2018-03-26T03:05:02.541Z,30.77
2018-03-26T03:07:36.740Z,31.50
2018-03-26T03:10:11.673Z,32.17
2018-03-26T03:12:45.834Z,29.47
2018-03-26T03:15:20.717Z,30.70
2018-03-26T03:17:55.148Z,30.27
2018-03-26T03:20:29.258Z,27.53
2018-03-26T03:23:03.560Z,28.33
2018-03-26T03:25:38.479Z,29.63
2018-03-26T03:28:12.723Z,30.17
2018-03-26T03:30:46.838Z,28.07
2018-03-26T03:33:21.227Z,29.83
2018-03-26T03:35:55.429Z,28.60
2018-03-26T03:38:29.795Z,27.90
2018-03-26T03:41:04.071Z,28.27
2018-03-26T03:43:38.630Z,30.13
2018-03-26T03:46:13.623Z,27.07
2018-03-26T03:48:48.070Z,26.83
2018-03-26T03:51:22.622Z,27.33
2018-03-26T03:53:56.983Z,26.23
2018-03-26T03:56:31.134Z,26.37
2018-03-26T03:59:05.315Z,25.40
2018-03-26T04:01:39.661Z,24.97
2018-03-26T04:04:14.006Z,26.40
2018-03-26T04:06:48.457Z,25.10
2018-03-26T04:09:22.826Z,23.77
2018-03-26T04:11:57.033Z,24.03
2018-03-26T04:14:31.374Z,25.37
2018-03-26T04:17:05.673Z,23.17
2018-03-26T04:19:40.613Z,26.07
2018-03-26T04:22:15.540Z,24.57
2018-03-26T04:24:49.668Z,24.17
2018-03-26T04:27:24.072Z,23.30
2018-03-26T04:29:58.288Z,23.90
2018-03-26T04:32:32.560Z,22.83
2018-03-26T04:35:07.637Z,24.83
2018-03-26T04:37:41.776Z,23.93
2018-03-26T04:40:16.694Z,25.13
2018-03-26T04:42:50.881Z,24.97
2018-03-26T04:45:25.812Z,24.80
2018-03-26T04:48:00.167Z,26.93
2018-03-26T04:50:34.367Z,26.80
2018-03-26T04:53:09.480Z,25.97
2018-03-26T04:55:43.992Z,25.20
2018-03-26T04:58:18.321Z,26.50
2018-03-26T05:00:52.472Z,25.97
2018-03-26T05:03:38.311Z,24.10
2018-03-26T05:06:12.584Z,26.50
2018-03-26T05:08:47.591Z,23.60
2018-03-26T05:11:21.953Z,26.83
2018-03-26T05:13:56.140Z,25.07
2018-03-26T05:16:31.220Z,25.17
2018-03-26T05:19:05.614Z,27.33
2018-03-26T05:21:39.919Z,25.97
2018-03-26T05:24:14.088Z,26.53
2018-03-26T05:26:48.388Z,26.40
2018-03-26T05:29:22.627Z,25.33
2018-03-26T05:31:57.579Z,26.97
2018-03-26T05:34:32.101Z,28.37
2018-03-26T05:37:06.400Z,29.80
2018-03-26T05:39:41.586Z,28.37
2018-03-26T05:42:15.745Z,29.43
2018-03-26T05:44:50.110Z,28.47
2018-03-26T05:47:24.372Z,28.40
2018-03-26T05:49:58.587Z,29.20
2018-03-26T05:52:33.892Z,27.03
2018-03-26T05:55:08.143Z,29.20
2018-03-26T05:57:43.196Z,28.30
2018-03-26T06:00:17.412Z,27.20
2018-03-26T06:02:51.685Z,29.90
2018-03-26T06:05:26.053Z,27.07
2018-03-26T06:08:00.520Z,32.40
2018-03-26T06:10:34.625Z,29.37
2018-03-26T06:13:08.910Z,28.60
2018-03-26T06:15:43.158Z,26.47
2018-03-26T06:18:18.210Z,29.50
2018-03-26T06:20:52.603Z,28.73
2018-03-26T06:23:26.796Z,29.60
2018-03-26T06:26:01.759Z,26.97
2018-03-26T06:28:35.975Z,26.03
2018-03-26T06:31:10.610Z,26.77
2018-03-26T06:33:45.731Z,26.90
2018-03-26T06:36:22.780Z,26.27
2018-03-26T06:38:58.457Z,25.00
2018-03-26T06:41:32.846Z,25.63
2018-03-26T06:44:07.200Z,26.20
2018-03-26T06:46:41.790Z,24.33
2018-03-26T06:49:15.947Z,25.50
2018-03-26T06:51:50.976Z,24.50
2018-03-26T06:54:25.903Z,23.07
2018-03-26T06:57:00.608Z,24.33
2018-03-26T06:59:34.946Z,23.90
2018-03-26T07:02:09.039Z,24.47
2018-03-26T07:04:43.427Z,24.10
2018-03-26T07:07:17.806Z,23.50
2018-03-26T07:09:52.043Z,23.00
2018-03-26T07:12:26.244Z,21.30
2018-03-26T07:15:00.447Z,21.47
2018-03-26T07:17:35.751Z,22.50
2018-03-26T07:20:10.128Z,21.30
2018-03-26T07:22:44.679Z,21.27
2018-03-26T07:25:19.780Z,19.17
2018-03-26T07:27:54.135Z,20.93
2018-03-26T07:30:29.212Z,20.97
2018-03-26T07:33:03.461Z,22.13
2018-03-26T07:35:37.669Z,23.80
2018-03-26T07:38:11.865Z,22.20
2018-03-26T07:40:46.194Z,20.80
2018-03-26T07:43:20.511Z,21.50
2018-03-26T07:45:55.743Z,18.40
2018-03-26T07:48:31.137Z,15.10
2018-03-26T07:51:06.265Z,8.50
2018-03-26T07:53:40.665Z,10.80
2018-03-26T07:56:15.051Z,12.37
2018-03-26T07:58:50.198Z,12.77
2018-03-26T08:01:24.525Z,12.80
2018-03-26T08:03:58.682Z,13.67
2018-03-26T08:06:33.801Z,13.57
2018-03-26T08:09:07.910Z,14.40
2018-03-26T08:11:42.219Z,12.80
2018-03-26T08:14:16.428Z,13.37
2018-03-26T08:16:50.983Z,12.13
2018-03-26T08:19:25.212Z,12.10
2018-03-26T08:22:00.258Z,12.07
2018-03-26T08:24:35.541Z,11.50
2018-03-26T08:27:10.066Z,11.10
2018-03-26T08:29:45.557Z,12.83
2018-03-26T08:32:20.482Z,11.20
2018-03-26T08:34:55.563Z,11.00
2018-03-26T08:37:29.761Z,10.40
2018-03-26T08:40:04.102Z,11.50
2018-03-26T08:42:38.423Z,12.50
2018-03-26T08:45:12.748Z,13.00
2018-03-26T08:47:47.050Z,11.27
2018-03-26T08:50:21.431Z,9.93
2018-03-26T08:52:56.336Z,8.87
2018-03-26T08:55:30.616Z,6.77
2018-03-26T08:58:05.039Z,8.33
2018-03-26T09:00:39.400Z,8.63
2018-03-26T09:03:14.387Z,9.63
2018-03-26T09:05:49.353Z,11.47
2018-03-26T09:08:23.936Z,11.10
2018-03-26T09:10:58.196Z,9.50
2018-03-26T09:13:32.702Z,9.40
2018-03-26T09:16:07.270Z,8.67
2018-03-26T09:18:41.514Z,9.17
2018-03-26T09:21:15.888Z,8.20
2018-03-26T09:23:50.060Z,8.07
2018-03-26T09:26:25.196Z,8.07
2018-03-26T09:29:00.493Z,7.10
2018-03-26T09:31:34.759Z,6.30
2018-03-26T09:34:09.238Z,6.60
2018-03-26T09:36:43.597Z,6.83
2018-03-26T09:39:17.926Z,6.97
2018-03-26T09:41:52.118Z,8.17
2018-03-26T09:44:26.302Z,7.20
2018-03-26T09:47:00.875Z,7.77
2018-03-26T09:49:35.036Z,8.20
2018-03-26T09:52:09.301Z,6.60
2018-03-26T09:54:43.528Z,6.43
2018-03-26T09:57:17.723Z,6.30
2018-03-26T09:59:51.978Z,8.20
2018-03-26T10:02:26.265Z,6.10
2018-03-26T10:05:00.612Z,6.13
2018-03-26T10:07:34.854Z,6.63
2018-03-26T10:10:09.177Z,6.53
2018-03-26T10:12:43.478Z,6.53
2018-03-26T10:15:18.684Z,5.00
2018-03-26T10:17:52.950Z,5.20
2018-03-26T10:20:27.265Z,5.50
2018-03-26T10:23:01.627Z,7.23
2018-03-26T10:25:35.970Z,5.90
2018-03-26T10:28:10.437Z,5.43
2018-03-26T10:30:44.681Z,5.37
2018-03-26T10:33:19.043Z,4.37
2018-03-26T10:35:53.188Z,6.57
2018-03-26T10:38:27.742Z,6.20
2018-03-26T10:41:02.027Z,6.53
2018-03-26T10:43:45.118Z,7.27
2018-03-26T10:46:19.526Z,5.20
2018-03-26T10:48:53.988Z,5.33
2018-03-26T10:51:29.011Z,5.80
2018-03-26T10:54:03.208Z,3.63
2018-03-26T10:56:37.759Z,4.50
2018-03-26T10:59:13.000Z,4.53
2018-03-26T11:01:47.319Z,3.60
2018-03-26T11:04:21.627Z,3.40
2018-03-26T11:06:55.794Z,4.37
2018-03-26T11:09:30.366Z,3.50
2018-03-26T11:12:05.101Z,3.00
2018-03-26T11:14:39.995Z,5.43
2018-03-26T11:17:14.310Z,4.67
2018-03-26T11:19:49.276Z,5.20
2018-03-26T11:22:23.465Z,3.83
2018-03-26T11:24:57.652Z,5.03
2018-03-26T11:27:32.154Z,4.40
2018-03-26T11:30:06.347Z,4.30
2018-03-26T11:32:40.775Z,3.90
2018-03-26T11:35:16.009Z,3.70
2018-03-26T11:37:50.228Z,3.57
2018-03-26T11:40:24.867Z,3.60
2018-03-26T11:42:59.037Z,3.80
2018-03-26T11:45:33.393Z,3.17
2018-03-26T11:48:07.570Z,3.57
2018-03-26T11:50:41.728Z,3.40
2018-03-26T11:53:16.253Z,2.93
2018-03-26T11:55:50.572Z,3.30
2018-03-26T11:58:24.776Z,3.90
2018-03-26T12:00:59.860Z,3.20
2018-03-26T12:03:34.124Z,2.50
2018-03-26T12:06:08.336Z,3.27
2018-03-26T12:08:42.871Z,2.80
2018-03-26T12:11:17.902Z,2.90
2018-03-26T12:13:52.187Z,3.10
2018-03-26T12:16:26.324Z,3.43
2018-03-26T12:19:00.544Z,3.27
2018-03-26T12:21:34.964Z,3.33
2018-03-26T12:24:21.414Z,3.03
2018-03-26T12:26:55.700Z,3.57
2018-03-26T12:29:41.792Z,3.17
2018-03-26T12:32:16.172Z,3.47
2018-03-26T12:35:02.422Z,3.80
2018-03-26T12:37:36.874Z,3.30
2018-03-26T12:40:23.091Z,2.90
2018-03-26T12:42:57.215Z,3.33
2018-03-26T12:45:43.235Z,2.80
2018-03-26T12:48:17.665Z,3.10
2018-03-26T12:51:04.295Z,3.40
2018-03-26T12:53:38.532Z,2.80
2018-03-26T12:56:12.636Z,3.87
2018-03-26T12:58:48.868Z,2.30
2018-03-26T13:01:34.915Z,2.10
2018-03-26T13:04:09.132Z,2.50
2018-03-26T13:06:43.277Z,2.10
2018-03-26T13:09:17.489Z,2.60
2018-03-26T13:11:51.666Z,1.80
2018-03-26T13:14:25.812Z,2.00
2018-03-26T13:16:59.940Z,2.20
2018-03-26T13:19:34.331Z,2.10
2018-03-26T13:22:08.645Z,1.90
2018-03-26T13:24:43.672Z,1.70
2018-03-26T13:27:18.205Z,2.23
2018-03-26T13:29:52.386Z,1.80
2018-03-26T13:32:27.312Z,1.80
2018-03-26T13:35:02.408Z,1.87
2018-03-26T13:37:36.663Z,1.60
2018-03-26T13:40:10.956Z,1.80
2018-03-26T13:42:45.069Z,1.77
2018-03-26T13:45:19.981Z,1.30
2018-03-26T13:47:54.899Z,1.40
2018-03-26T13:50:29.204Z,1.43
2018-03-26T13:53:03.408Z,1.10
2018-03-26T13:55:37.555Z,2.03
2018-03-26T13:58:11.853Z,1.60
2018-03-26T14:00:46.046Z,1.87
2018-03-26T14:03:20.217Z,1.80
2018-03-26T14:05:54.415Z,3.67
2018-03-26T14:08:40.747Z,1.23
2018-03-26T14:11:26.841Z,2.20
2018-03-26T14:14:13.119Z,2.10
2018-03-26T14:16:59.437Z,3.60
2018-03-26T14:19:33.768Z,2.40
2018-03-26T14:22:07.833Z,2.00
2018-03-26T14:24:42.042Z,1.70
2018-03-26T14:27:16.298Z,1.90
2018-03-26T14:29:50.565Z,1.87
2018-03-26T14:32:25.619Z,2.30
2018-03-26T14:35:12.468Z,3.07
2018-03-26T14:37:46.618Z,2.70
2018-03-26T14:40:20.962Z,2.37
2018-03-26T14:42:55.997Z,2.40
2018-03-26T14:45:30.159Z,2.07
2018-03-26T14:48:04.470Z,2.40
2018-03-26T14:50:38.777Z,2.00
2018-03-26T14:53:13.172Z,2.23
2018-03-26T14:55:48.490Z,2.40
2018-03-26T14:58:22.805Z,2.60
2018-03-26T15:00:57.320Z,2.30
2018-03-26T15:03:31.648Z,1.93
2018-03-26T15:06:05.908Z,2.40
2018-03-26T15:08:40.055Z,2.60
2018-03-26T15:11:14.262Z,2.60
2018-03-26T15:13:48.630Z,2.20
2018-03-26T15:16:22.822Z,2.27
2018-03-26T15:18:56.996Z,1.90
2018-03-26T15:21:32.053Z,2.73
2018-03-26T15:24:06.256Z,2.37
2018-03-26T15:26:40.609Z,2.40
2018-03-26T15:29:14.891Z,2.60
2018-03-26T15:31:49.316Z,2.73
2018-03-26T15:34:23.559Z,3.20
2018-03-26T15:36:57.728Z,2.70
2018-03-26T15:39:32.501Z,2.80
2018-03-26T15:42:06.654Z,2.70
2018-03-26T15:44:40.991Z,2.77
2018-03-26T15:47:15.426Z,3.50
2018-03-26T15:49:49.657Z,3.50
2018-03-26T15:52:24.078Z,3.17
2018-03-26T15:54:58.275Z,3.47
2018-03-26T15:57:32.468Z,3.30
2018-03-26T16:00:06.666Z,4.40
2018-03-26T16:02:46.450Z,3.50
2018-03-26T16:05:20.744Z,3.63
2018-03-26T16:07:55.850Z,3.73
2018-03-26T16:10:30.453Z,3.17
2018-03-26T16:13:05.076Z,3.47
2018-03-26T16:15:39.459Z,3.80
2018-03-26T16:18:13.556Z,3.97
2018-03-26T16:20:47.857Z,3.63
2018-03-26T16:23:22.968Z,3.73
2018-03-26T16:25:57.441Z,5.70
2018-03-26T16:28:31.745Z,3.97
2018-03-26T16:31:06.018Z,4.90
2018-03-26T16:33:40.318Z,3.93
2018-03-26T16:36:15.315Z,3.80
2018-03-26T16:38:50.201Z,3.53
2018-03-26T16:41:36.912Z,3.90
2018-03-26T16:44:11.376Z,3.90
2018-03-26T16:46:45.802Z,3.37
2018-03-26T16:49:20.031Z,3.77
2018-03-26T16:51:54.342Z,3.40
2018-03-26T16:54:29.306Z,3.50
2018-03-26T16:57:03.743Z,3.60
2018-03-26T16:59:37.998Z,4.30
2018-03-26T17:02:12.305Z,4.07
2018-03-26T17:04:46.476Z,3.80
2018-03-26T17:07:20.788Z,3.80
2018-03-26T17:09:55.157Z,3.83
2018-03-26T17:12:29.444Z,3.73
2018-03-26T17:15:03.764Z,3.73
2018-03-26T17:17:38.767Z,4.20
2018-03-26T17:20:13.390Z,4.03
2018-03-26T17:22:47.640Z,4.17
2018-03-26T17:25:22.716Z,3.63
2018-03-26T17:27:57.101Z,4.53
2018-03-26T17:30:31.324Z,4.10
2018-03-26T17:33:05.715Z,5.10
2018-03-26T17:35:40.116Z,4.27
2018-03-26T17:38:14.804Z,3.87
2018-03-26T17:40:49.144Z,4.87
2018-03-26T17:43:23.498Z,4.10
2018-03-26T17:45:57.679Z,5.40
2018-03-26T17:48:31.881Z,6.60
2018-03-26T17:51:06.152Z,5.60
2018-03-26T17:53:40.406Z,4.10
2018-03-26T17:56:14.814Z,4.10
2018-03-26T17:58:49.247Z,4.30
2018-03-26T18:01:23.441Z,4.83
2018-03-26T18:03:58.678Z,5.10
2018-03-26T18:06:33.086Z,5.17
2018-03-26T18:09:07.610Z,5.50
2018-03-26T18:11:42.029Z,4.93
2018-03-26T18:14:17.276Z,5.37
2018-03-26T18:16:51.672Z,5.30
2018-03-26T18:19:25.941Z,5.13
2018-03-26T18:22:00.185Z,5.27
2018-03-26T18:24:34.413Z,4.80
2018-03-26T18:27:08.936Z,4.80
2018-03-26T18:29:43.454Z,4.83
2018-03-26T18:32:17.804Z,4.97
2018-03-26T18:34:52.197Z,5.37
2018-03-26T18:37:26.415Z,5.10
2018-03-26T18:40:01.375Z,3.93
2018-03-26T18:42:35.798Z,5.50
2018-03-26T18:45:10.121Z,4.87
2018-03-26T18:47:44.647Z,6.10
2018-03-26T18:50:19.637Z,6.00
2018-03-26T18:52:54.014Z,5.80
2018-03-26T18:55:28.865Z,5.33
2018-03-26T18:58:03.143Z,5.00
2018-03-26T19:00:38.123Z,5.20
2018-03-26T19:03:12.350Z,4.57
2018-03-26T19:05:46.728Z,5.27
2018-03-26T19:08:21.440Z,4.50
2018-03-26T19:10:56.289Z,4.60
2018-03-26T19:13:30.656Z,5.30
2018-03-26T19:16:04.904Z,5.53
2018-03-26T19:18:39.852Z,6.17
2018-03-26T19:21:14.066Z,6.00
2018-03-26T19:23:48.378Z,5.90
2018-03-26T19:26:22.796Z,5.67
2018-03-26T19:28:57.304Z,4.90
2018-03-26T19:31:32.452Z,6.40
2018-03-26T19:34:06.996Z,5.33
2018-03-26T19:36:41.400Z,6.90
2018-03-26T19:39:15.764Z,5.70
2018-03-26T19:41:49.932Z,5.40
2018-03-26T19:44:24.063Z,6.20
2018-03-26T19:46:59.095Z,6.03
2018-03-26T19:49:33.551Z,6.50
2018-03-26T19:52:08.798Z,7.43
2018-03-26T19:54:43.156Z,6.70
2018-03-26T19:57:17.344Z,7.40
2018-03-26T19:59:51.547Z,7.37
2018-03-26T20:02:25.828Z,7.00
2018-03-26T20:05:00.448Z,7.50
2018-03-26T20:07:34.825Z,7.80
2018-03-26T20:10:08.968Z,7.93
2018-03-26T20:12:43.368Z,8.50
2018-03-26T20:15:17.930Z,8.27
2018-03-26T20:17:52.391Z,8.20
2018-03-26T20:20:26.515Z,9.13
2018-03-26T20:23:01.604Z,6.90
2018-03-26T20:25:36.628Z,8.90
2018-03-26T20:28:11.151Z,9.70
2018-03-26T20:30:45.660Z,9.30
2018-03-26T20:33:20.036Z,10.10
2018-03-26T20:35:54.360Z,10.63
2018-03-26T20:38:29.487Z,10.43
2018-03-26T20:41:04.464Z,10.30
2018-03-26T20:43:39.048Z,9.80
2018-03-26T20:46:13.309Z,10.13
2018-03-26T20:48:47.609Z,10.70
2018-03-26T20:51:21.927Z,10.43
2018-03-26T20:53:56.154Z,11.07
2018-03-26T20:56:30.452Z,10.27
2018-03-26T20:59:04.872Z,10.33
2018-03-26T21:01:39.039Z,9.97
2018-03-26T21:04:13.475Z,10.90
2018-03-26T21:06:47.868Z,14.03
2018-03-26T21:09:22.231Z,9.60
2018-03-26T21:11:56.549Z,9.83
2018-03-26T21:14:30.819Z,10.83
2018-03-26T21:17:05.040Z,9.53
2018-03-26T21:19:39.461Z,9.30
2018-03-26T21:22:14.498Z,8.97
2018-03-26T21:24:48.907Z,8.33
2018-03-26T21:27:23.235Z,8.17
2018-03-26T21:29:58.185Z,9.27
2018-03-26T21:32:32.422Z,9.40
2018-03-26T21:35:06.696Z,9.13
2018-03-26T21:37:41.065Z,12.30
2018-03-26T21:40:15.233Z,13.63
2018-03-26T21:42:49.372Z,11.80
2018-03-26T21:45:24.501Z,11.30
2018-03-26T21:47:58.619Z,10.73
2018-03-26T21:50:32.967Z,12.13
2018-03-26T21:53:07.069Z,9.83
2018-03-26T21:55:41.259Z,9.80
2018-03-26T21:58:15.436Z,10.97
2018-03-26T22:00:49.755Z,11.00
2018-03-26T22:03:23.980Z,11.07
2018-03-26T22:05:58.280Z,9.53
2018-03-26T22:08:32.586Z,11.30
2018-03-26T22:11:07.264Z,10.30
2018-03-26T22:13:41.373Z,12.70
2018-03-26T22:16:15.664Z,11.83
2018-03-26T22:18:49.882Z,11.30
2018-03-26T22:21:24.282Z,11.13
2018-03-26T22:23:58.486Z,11.60
2018-03-26T22:26:32.844Z,12.33
2018-03-26T22:29:06.955Z,13.87
2018-03-26T22:31:41.402Z,11.40
2018-03-26T22:34:15.631Z,11.30
2018-03-26T22:36:50.039Z,10.10
2018-03-26T22:39:24.261Z,11.23
2018-03-26T22:41:58.499Z,12.40
2018-03-26T22:44:32.939Z,11.57
2018-03-26T22:47:07.493Z,11.20
2018-03-26T22:49:41.746Z,13.30
2018-03-26T22:52:16.715Z,13.17
2018-03-26T22:54:51.801Z,12.67
2018-03-26T22:57:26.390Z,12.10
2018-03-26T23:00:00.640Z,12.50
2018-03-26T23:02:35.020Z,16.00
2018-03-26T23:05:10.105Z,13.77
2018-03-26T23:07:44.281Z,12.43
2018-03-26T23:10:19.334Z,11.87
2018-03-26T23:12:53.514Z,12.37
2018-03-26T23:15:28.436Z,14.80
2018-03-26T23:18:02.916Z,13.40
2018-03-26T23:20:37.233Z,12.60
2018-03-26T23:23:12.320Z,12.47
2018-03-26T23:25:46.792Z,13.67
2018-03-26T23:28:21.176Z,13.67
2018-03-26T23:30:56.292Z,14.27
2018-03-26T23:33:30.731Z,13.77
2018-03-26T23:36:04.984Z,14.00
2018-03-26T23:38:39.202Z,14.57
2018-03-26T23:41:14.272Z,21.30
2018-03-26T23:43:48.552Z,15.17
2018-03-26T23:46:23.214Z,15.13
2018-03-26T23:48:57.457Z,15.93
2018-03-26T23:51:31.719Z,14.83
2018-03-26T23:54:05.886Z,13.97
2018-03-26T23:56:40.048Z,13.87
2018-03-26T23:59:14.262Z,14.90
